sensor_id;sensor_type;location;lat;lon;timestamp;pressure;altitude;pressure_sealevel;temperature;humidity
40954;BME280;26686;50.130;8.710;2023-05-11T00:03:46;99912.06;;;14.84;65.94
40954;BME280;26686;50.130;8.710;2023-05-11T00:08:48;99914.66;;;14.68;66.77
40954;BME280;26686;50.130;8.710;2023-05-11T00:13:49;99916.03;;;14.54;67.96
40954;BME280;26686;50.130;8.710;2023-05-11T00:18:51;99907.81;;;14.47;67.51
40954;BME280;26686;50.130;8.710;2023-05-11T00:23:52;99908.47;;;14.49;67.30
40954;BME280;26686;50.130;8.710;2023-05-11T00:28:54;99900.84;;;14.55;67.65
40954;BME280;26686;50.130;8.710;2023-05-11T00:33:55;99909.84;;;14.54;67.04
40954;BME280;26686;50.130;8.710;2023-05-11T00:38:56;99902.63;;;14.46;67.06
40954;BME280;26686;50.130;8.710;2023-05-11T00:43:58;99909.63;;;14.47;67.59
40954;BME280;26686;50.130;8.710;2023-05-11T00:48:59;99905.13;;;14.47;68.22
40954;BME280;26686;50.130;8.710;2023-05-11T00:54:01;99894.41;;;14.47;68.28
40954;BME280;26686;50.130;8.710;2023-05-11T00:59:02;99899.22;;;14.44;68.52
40954;BME280;26686;50.130;8.710;2023-05-11T01:04:04;99901.75;;;14.45;67.66
40954;BME280;26686;50.130;8.710;2023-05-11T01:09:23;99903.13;;;14.49;68.42
40954;BME280;26686;50.130;8.710;2023-05-11T01:15:01;99904.59;;;14.44;67.63
40954;BME280;26686;50.130;8.710;2023-05-11T01:20:11;99897.66;;;14.33;67.45
40954;BME280;26686;50.130;8.710;2023-05-11T01:25:21;99903.31;;;14.30;68.75
40954;BME280;26686;50.130;8.710;2023-05-11T01:30:34;99887.09;;;14.31;68.28
40954;BME280;26686;50.130;8.710;2023-05-11T01:35:48;99885.22;;;14.24;68.31
40954;BME280;26686;50.130;8.710;2023-05-11T01:40:53;99897.94;;;14.22;68.66
40954;BME280;26686;50.130;8.710;2023-05-11T01:45:59;99899.06;;;14.19;68.25
40954;BME280;26686;50.130;8.710;2023-05-11T01:51:02;99906.88;;;14.12;68.19
40954;BME280;26686;50.130;8.710;2023-05-11T01:56:05;99901.81;;;14.09;69.29
40954;BME280;26686;50.130;8.710;2023-05-11T02:01:08;99907.19;;;14.09;69.72
40954;BME280;26686;50.130;8.710;2023-05-11T02:06:13;99905.50;;;14.08;69.58
40954;BME280;26686;50.130;8.710;2023-05-11T02:11:16;99910.47;;;14.03;68.90
40954;BME280;26686;50.130;8.710;2023-05-11T02:16:18;99907.50;;;13.88;70.12
40954;BME280;26686;50.130;8.710;2023-05-11T02:21:21;99908.97;;;13.83;70.40
40954;BME280;26686;50.130;8.710;2023-05-11T02:26:22;99913.56;;;13.90;70.41
40954;BME280;26686;50.130;8.710;2023-05-11T02:31:27;99911.81;;;13.81;70.62
40954;BME280;26686;50.130;8.710;2023-05-11T02:36:32;99913.94;;;13.77;70.61
40954;BME280;26686;50.130;8.710;2023-05-11T02:41:38;99912.78;;;13.80;71.05
40954;BME280;26686;50.130;8.710;2023-05-11T02:46:42;99903.84;;;13.71;70.39
40954;BME280;26686;50.130;8.710;2023-05-11T02:51:48;99908.56;;;13.77;71.03
40954;BME280;26686;50.130;8.710;2023-05-11T02:56:50;99907.44;;;13.80;71.26
40954;BME280;26686;50.130;8.710;2023-05-11T03:01:52;99907.59;;;13.78;71.23
40954;BME280;26686;50.130;8.710;2023-05-11T03:06:54;99906.66;;;13.88;71.01
40954;BME280;26686;50.130;8.710;2023-05-11T03:11:56;99908.50;;;13.87;70.52
40954;BME280;26686;50.130;8.710;2023-05-11T03:17:00;99908.97;;;13.83;71.38
40954;BME280;26686;50.130;8.710;2023-05-11T03:22:02;99911.09;;;13.79;70.42
40954;BME280;26686;50.130;8.710;2023-05-11T03:27:05;99917.59;;;13.76;71.21
40954;BME280;26686;50.130;8.710;2023-05-11T03:32:07;99912.84;;;13.70;71.34
40954;BME280;26686;50.130;8.710;2023-05-11T03:37:11;99913.16;;;13.67;71.10
40954;BME280;26686;50.130;8.710;2023-05-11T03:42:13;99906.72;;;13.60;70.82
40954;BME280;26686;50.130;8.710;2023-05-11T03:47:16;99916.44;;;13.61;70.98
40954;BME280;26686;50.130;8.710;2023-05-11T03:52:19;99900.03;;;13.56;71.19
40954;BME280;26686;50.130;8.710;2023-05-11T03:57:24;99916.38;;;13.53;70.83
40954;BME280;26686;50.130;8.710;2023-05-11T04:02:25;99921.16;;;13.49;71.60
40954;BME280;26686;50.130;8.710;2023-05-11T04:07:27;99910.72;;;13.56;71.41
40954;BME280;26686;50.130;8.710;2023-05-11T04:12:29;99913.84;;;13.51;71.12
40954;BME280;26686;50.130;8.710;2023-05-11T04:17:30;99910.53;;;13.39;71.49
40954;BME280;26686;50.130;8.710;2023-05-11T04:22:32;99914.97;;;13.49;72.09
40954;BME280;26686;50.130;8.710;2023-05-11T04:27:34;99909.63;;;13.49;71.98
40954;BME280;26686;50.130;8.710;2023-05-11T04:32:35;99914.38;;;13.55;71.62
40954;BME280;26686;50.130;8.710;2023-05-11T04:37:37;99928.41;;;13.57;72.17
40954;BME280;26686;50.130;8.710;2023-05-11T04:42:38;99928.13;;;13.60;72.17
40954;BME280;26686;50.130;8.710;2023-05-11T04:47:39;99925.75;;;13.57;71.53
40954;BME280;26686;50.130;8.710;2023-05-11T04:52:41;99919.66;;;13.65;72.37
40954;BME280;26686;50.130;8.710;2023-05-11T04:57:42;99918.19;;;13.70;71.69
40954;BME280;26686;50.130;8.710;2023-05-11T05:02:43;99922.72;;;13.70;71.89
40954;BME280;26686;50.130;8.710;2023-05-11T05:07:45;99929.97;;;13.77;71.93
40954;BME280;26686;50.130;8.710;2023-05-11T05:12:47;99922.88;;;13.68;72.36
40954;BME280;26686;50.130;8.710;2023-05-11T05:17:49;99939.53;;;13.80;72.30
40954;BME280;26686;50.130;8.710;2023-05-11T05:22:50;99943.44;;;13.86;72.44
40954;BME280;26686;50.130;8.710;2023-05-11T05:27:52;99938.47;;;13.91;72.10
40954;BME280;26686;50.130;8.710;2023-05-11T05:32:53;99942.84;;;13.92;71.69
40954;BME280;26686;50.130;8.710;2023-05-11T05:37:55;99943.91;;;13.99;71.86
40954;BME280;26686;50.130;8.710;2023-05-11T05:42:56;99951.00;;;14.08;71.55
40954;BME280;26686;50.130;8.710;2023-05-11T05:47:58;99960.41;;;14.12;71.91
40954;BME280;26686;50.130;8.710;2023-05-11T05:53:02;99962.47;;;14.19;71.71
40954;BME280;26686;50.130;8.710;2023-05-11T05:58:03;99958.47;;;14.23;70.52
40954;BME280;26686;50.130;8.710;2023-05-11T06:03:05;99963.84;;;14.23;71.31
40954;BME280;26686;50.130;8.710;2023-05-11T06:08:06;99966.91;;;14.28;70.91
40954;BME280;26686;50.130;8.710;2023-05-11T06:13:11;99972.94;;;14.30;71.42
40954;BME280;26686;50.130;8.710;2023-05-11T06:18:13;99969.28;;;14.31;71.33
40954;BME280;26686;50.130;8.710;2023-05-11T06:23:15;99971.63;;;14.34;70.96
40954;BME280;26686;50.130;8.710;2023-05-11T06:28:17;99969.63;;;14.36;71.22
40954;BME280;26686;50.130;8.710;2023-05-11T06:33:18;99973.06;;;14.46;71.04
40954;BME280;26686;50.130;8.710;2023-05-11T06:38:19;99972.91;;;14.48;71.11
40954;BME280;26686;50.130;8.710;2023-05-11T06:43:21;99977.13;;;14.50;71.28
40954;BME280;26686;50.130;8.710;2023-05-11T06:48:23;99972.13;;;14.56;71.53
40954;BME280;26686;50.130;8.710;2023-05-11T06:53:26;99975.34;;;14.59;71.41
40954;BME280;26686;50.130;8.710;2023-05-11T06:58:27;99973.56;;;14.68;71.20
40954;BME280;26686;50.130;8.710;2023-05-11T07:03:28;99969.97;;;14.77;71.40
40954;BME280;26686;50.130;8.710;2023-05-11T07:08:30;99980.09;;;14.92;71.93
40954;BME280;26686;50.130;8.710;2023-05-11T07:13:31;99975.53;;;14.84;72.48
40954;BME280;26686;50.130;8.710;2023-05-11T07:18:32;99973.44;;;14.96;72.14
40954;BME280;26686;50.130;8.710;2023-05-11T07:23:34;99979.19;;;15.09;72.91
40954;BME280;26686;50.130;8.710;2023-05-11T07:28:36;99978.91;;;15.20;72.17
40954;BME280;26686;50.130;8.710;2023-05-11T07:33:37;99983.06;;;14.80;74.38
40954;BME280;26686;50.130;8.710;2023-05-11T07:38:39;99988.03;;;15.01;73.84
40954;BME280;26686;50.130;8.710;2023-05-11T07:43:40;99991.28;;;15.13;73.62
40954;BME280;26686;50.130;8.710;2023-05-11T07:48:42;99988.22;;;15.08;73.14
40954;BME280;26686;50.130;8.710;2023-05-11T07:53:43;99992.59;;;15.09;73.33
40954;BME280;26686;50.130;8.710;2023-05-11T07:58:45;99987.28;;;15.17;73.25
40954;BME280;26686;50.130;8.710;2023-05-11T08:03:46;99977.59;;;15.25;73.27
40954;BME280;26686;50.130;8.710;2023-05-11T08:08:47;99985.00;;;15.31;73.00
40954;BME280;26686;50.130;8.710;2023-05-11T08:13:49;99985.69;;;15.33;72.23
40954;BME280;26686;50.130;8.710;2023-05-11T08:18:50;99987.03;;;15.37;71.77
40954;BME280;26686;50.130;8.710;2023-05-11T08:23:52;99977.66;;;15.41;71.90
40954;BME280;26686;50.130;8.710;2023-05-11T08:28:53;99982.38;;;15.47;71.70
40954;BME280;26686;50.130;8.710;2023-05-11T08:33:54;99978.53;;;15.50;71.69
40954;BME280;26686;50.130;8.710;2023-05-11T08:38:56;99978.72;;;15.56;71.45
40954;BME280;26686;50.130;8.710;2023-05-11T08:44:00;99980.25;;;15.59;71.94
40954;BME280;26686;50.130;8.710;2023-05-11T08:49:02;99979.09;;;15.62;71.30
40954;BME280;26686;50.130;8.710;2023-05-11T08:54:03;99981.44;;;15.65;71.85
40954;BME280;26686;50.130;8.710;2023-05-11T08:59:07;99978.75;;;15.65;71.84
40954;BME280;26686;50.130;8.710;2023-05-11T09:04:09;99981.28;;;15.66;71.65
40954;BME280;26686;50.130;8.710;2023-05-11T09:09:11;99986.44;;;15.60;71.75
40954;BME280;26686;50.130;8.710;2023-05-11T09:14:12;99988.44;;;15.58;71.78
40954;BME280;26686;50.130;8.710;2023-05-11T09:19:14;99985.94;;;15.56;71.84
40954;BME280;26686;50.130;8.710;2023-05-11T09:24:18;99992.84;;;15.67;72.00
40954;BME280;26686;50.130;8.710;2023-05-11T09:29:20;99987.84;;;15.72;72.02
40954;BME280;26686;50.130;8.710;2023-05-11T09:34:22;99982.81;;;15.77;71.22
40954;BME280;26686;50.130;8.710;2023-05-11T09:39:28;99996.28;;;15.85;71.54
40954;BME280;26686;50.130;8.710;2023-05-11T09:44:45;99988.91;;;15.87;71.33
40954;BME280;26686;50.130;8.710;2023-05-11T09:49:47;99986.22;;;15.87;71.36
40954;BME280;26686;50.130;8.710;2023-05-11T09:54:51;99983.22;;;15.90;71.05
40954;BME280;26686;50.130;8.710;2023-05-11T09:59:54;99989.25;;;15.93;71.34
40954;BME280;26686;50.130;8.710;2023-05-11T10:04:58;99982.88;;;15.94;70.33
40954;BME280;26686;50.130;8.710;2023-05-11T10:15:06;99982.75;;;16.03;70.27
40954;BME280;26686;50.130;8.710;2023-05-11T10:20:09;99982.91;;;16.10;70.23
40954;BME280;26686;50.130;8.710;2023-05-11T10:25:11;99978.38;;;16.19;70.98
40954;BME280;26686;50.130;8.710;2023-05-11T10:30:13;99976.88;;;16.24;70.51
40954;BME280;26686;50.130;8.710;2023-05-11T10:35:14;99976.72;;;16.26;71.88
40954;BME280;26686;50.130;8.710;2023-05-11T10:40:16;99972.31;;;16.33;72.16
40954;BME280;26686;50.130;8.710;2023-05-11T11:01:36;99957.72;;;16.60;71.39
40954;BME280;26686;50.130;8.710;2023-05-11T11:06:42;99956.53;;;16.71;70.25
40954;BME280;26686;50.130;8.710;2023-05-11T11:11:45;99952.66;;;16.74;69.24
40954;BME280;26686;50.130;8.710;2023-05-11T11:32:42;99950.16;;;16.72;68.70
40954;BME280;26686;50.130;8.710;2023-05-11T11:37:59;99955.34;;;16.66;69.35
40954;BME280;26686;50.130;8.710;2023-05-11T11:43:17;99946.97;;;16.60;70.49
40954;BME280;26686;50.130;8.710;2023-05-11T12:03:43;99948.50;;;16.38;74.71
40954;BME280;26686;50.130;8.710;2023-05-11T12:08:47;99944.63;;;16.33;75.31
40954;BME280;26686;50.130;8.710;2023-05-11T12:13:49;99953.53;;;16.33;77.46
40954;BME280;26686;50.130;8.710;2023-05-11T12:18:53;99951.38;;;16.37;78.94
40954;BME280;26686;50.130;8.710;2023-05-11T12:23:57;99952.03;;;16.31;78.59
40954;BME280;26686;50.130;8.710;2023-05-11T12:29:10;99954.38;;;16.25;79.43
40954;BME280;26686;50.130;8.710;2023-05-11T12:34:21;99955.91;;;16.20;80.55
40954;BME280;26686;50.130;8.710;2023-05-11T12:39:24;99957.41;;;16.14;80.54
40954;BME280;26686;50.130;8.710;2023-05-11T12:44:26;99958.06;;;16.08;83.11
40954;BME280;26686;50.130;8.710;2023-05-11T12:49:28;99945.66;;;16.07;83.83
40954;BME280;26686;50.130;8.710;2023-05-11T12:54:34;99948.66;;;16.04;84.84
40954;BME280;26686;50.130;8.710;2023-05-11T12:59:39;99939.78;;;16.03;85.14
40954;BME280;26686;50.130;8.710;2023-05-11T13:04:41;99928.69;;;15.98;86.31
40954;BME280;26686;50.130;8.710;2023-05-11T13:09:55;99932.22;;;16.07;85.04
40954;BME280;26686;50.130;8.710;2023-05-11T13:15:06;99929.38;;;16.00;85.45
40954;BME280;26686;50.130;8.710;2023-05-11T13:20:21;99935.75;;;16.07;84.94
40954;BME280;26686;50.130;8.710;2023-05-11T13:25:24;99929.69;;;16.14;86.81
40954;BME280;26686;50.130;8.710;2023-05-11T13:30:26;99924.50;;;16.20;86.55
40954;BME280;26686;50.130;8.710;2023-05-11T13:35:28;99921.16;;;16.26;86.63
40954;BME280;26686;50.130;8.710;2023-05-11T13:40:29;99921.16;;;16.26;83.96
40954;BME280;26686;50.130;8.710;2023-05-11T13:45:30;99915.59;;;16.28;83.57
40954;BME280;26686;50.130;8.710;2023-05-11T13:50:32;99911.41;;;16.25;85.45
40954;BME280;26686;50.130;8.710;2023-05-11T13:55:36;99919.13;;;16.29;86.73
40954;BME280;26686;50.130;8.710;2023-05-11T14:00:38;99914.09;;;16.25;86.00
40954;BME280;26686;50.130;8.710;2023-05-11T14:05:40;99908.22;;;16.30;86.59
40954;BME280;26686;50.130;8.710;2023-05-11T14:10:43;99904.69;;;16.30;86.50
40954;BME280;26686;50.130;8.710;2023-05-11T14:15:44;99903.69;;;16.31;85.72
40954;BME280;26686;50.130;8.710;2023-05-11T14:20:45;99905.69;;;16.29;85.01
40954;BME280;26686;50.130;8.710;2023-05-11T14:25:47;99900.00;;;15.99;86.84
40954;BME280;26686;50.130;8.710;2023-05-11T14:30:48;99907.06;;;16.08;85.77
40954;BME280;26686;50.130;8.710;2023-05-11T14:35:50;99906.72;;;16.11;86.20
40954;BME280;26686;50.130;8.710;2023-05-11T14:40:52;99907.72;;;16.10;83.48
40954;BME280;26686;50.130;8.710;2023-05-11T14:45:54;99906.22;;;16.16;84.62
40954;BME280;26686;50.130;8.710;2023-05-11T14:50:55;99901.34;;;16.19;83.03
40954;BME280;26686;50.130;8.710;2023-05-11T14:55:58;99899.34;;;16.21;82.38
40954;BME280;26686;50.130;8.710;2023-05-11T15:01:00;99908.22;;;16.22;80.19
40954;BME280;26686;50.130;8.710;2023-05-11T15:06:02;99906.38;;;16.22;79.99
40954;BME280;26686;50.130;8.710;2023-05-11T15:11:04;99905.03;;;16.10;78.67
40954;BME280;26686;50.130;8.710;2023-05-11T15:16:05;99901.69;;;16.00;81.76
40954;BME280;26686;50.130;8.710;2023-05-11T15:21:07;99901.00;;;16.06;82.07
40954;BME280;26686;50.130;8.710;2023-05-11T15:26:08;99896.16;;;16.10;80.62
40954;BME280;26686;50.130;8.710;2023-05-11T15:31:10;99899.66;;;16.10;81.65
40954;BME280;26686;50.130;8.710;2023-05-11T15:36:12;99904.22;;;16.10;81.99
40954;BME280;26686;50.130;8.710;2023-05-11T15:41:14;99896.00;;;16.11;80.17
40954;BME280;26686;50.130;8.710;2023-05-11T15:46:16;99900.66;;;16.09;81.09
40954;BME280;26686;50.130;8.710;2023-05-11T15:51:18;99896.97;;;16.10;80.79
40954;BME280;26686;50.130;8.710;2023-05-11T15:56:19;99902.69;;;16.07;77.53
40954;BME280;26686;50.130;8.710;2023-05-11T16:01:21;99902.03;;;16.05;82.45
40954;BME280;26686;50.130;8.710;2023-05-11T16:06:22;99897.31;;;16.07;82.96
40954;BME280;26686;50.130;8.710;2023-05-11T16:11:23;99906.22;;;16.07;82.01
40954;BME280;26686;50.130;8.710;2023-05-11T16:16:26;99892.94;;;16.06;81.99
40954;BME280;26686;50.130;8.710;2023-05-11T16:21:27;99889.94;;;16.09;81.46
40954;BME280;26686;50.130;8.710;2023-05-11T16:26:29;99895.63;;;16.06;82.08
40954;BME280;26686;50.130;8.710;2023-05-11T16:31:31;99900.19;;;16.05;81.99
40954;BME280;26686;50.130;8.710;2023-05-11T16:36:32;99891.28;;;16.05;82.95
40954;BME280;26686;50.130;8.710;2023-05-11T16:41:34;99898.16;;;16.07;83.66
40954;BME280;26686;50.130;8.710;2023-05-11T16:46:35;99887.91;;;16.03;83.10
40954;BME280;26686;50.130;8.710;2023-05-11T16:51:37;99890.59;;;16.03;84.23
40954;BME280;26686;50.130;8.710;2023-05-11T16:56:38;99885.56;;;16.00;83.56
40954;BME280;26686;50.130;8.710;2023-05-11T17:01:40;99885.56;;;16.00;83.11
40954;BME280;26686;50.130;8.710;2023-05-11T17:06:42;99890.44;;;15.96;84.49
40954;BME280;26686;50.130;8.710;2023-05-11T17:11:43;99884.22;;;15.96;84.88
40954;BME280;26686;50.130;8.710;2023-05-11T17:16:45;99894.97;;;15.96;85.44
40954;BME280;26686;50.130;8.710;2023-05-11T17:21:46;99890.78;;;15.93;85.89
40954;BME280;26686;50.130;8.710;2023-05-11T17:26:48;99888.44;;;15.90;86.76
40954;BME280;26686;50.130;8.710;2023-05-11T17:31:50;99893.81;;;15.90;86.41
40954;BME280;26686;50.130;8.710;2023-05-11T17:36:52;99900.34;;;15.87;85.89
40954;BME280;26686;50.130;8.710;2023-05-11T17:41:54;99898.97;;;15.83;86.06
40954;BME280;26686;50.130;8.710;2023-05-11T17:46:55;99894.94;;;15.79;85.89
40954;BME280;26686;50.130;8.710;2023-05-11T17:51:57;99896.09;;;15.77;85.49
40954;BME280;26686;50.130;8.710;2023-05-11T17:56:59;99901.47;;;15.77;84.46
40954;BME280;26686;50.130;8.710;2023-05-11T18:02:00;99903.47;;;15.74;85.37
40954;BME280;26686;50.130;8.710;2023-05-11T18:07:01;99906.00;;;15.68;85.31
40954;BME280;26686;50.130;8.710;2023-05-11T18:12:04;99903.63;;;15.65;84.91
40954;BME280;26686;50.130;8.710;2023-05-11T18:17:06;99910.00;;;15.64;86.38
40954;BME280;26686;50.130;8.710;2023-05-11T18:22:07;99915.69;;;15.61;83.82
40954;BME280;26686;50.130;8.710;2023-05-11T18:27:09;99913.66;;;15.54;84.07
40954;BME280;26686;50.130;8.710;2023-05-11T18:32:10;99918.03;;;15.55;85.62
40954;BME280;26686;50.130;8.710;2023-05-11T18:37:11;99914.00;;;15.51;86.07
40954;BME280;26686;50.130;8.710;2023-05-11T18:42:12;99914.31;;;15.48;85.55
40954;BME280;26686;50.130;8.710;2023-05-11T18:47:14;99913.97;;;15.43;86.10
40954;BME280;26686;50.130;8.710;2023-05-11T18:52:15;99918.00;;;15.47;85.30
40954;BME280;26686;50.130;8.710;2023-05-11T18:57:17;99919.00;;;15.38;84.89
40954;BME280;26686;50.130;8.710;2023-05-11T19:02:20;99925.16;;;15.30;82.85
40954;BME280;26686;50.130;8.710;2023-05-11T19:07:22;99918.94;;;15.22;86.73
40954;BME280;26686;50.130;8.710;2023-05-11T19:12:23;99932.72;;;15.27;86.05
40954;BME280;26686;50.130;8.710;2023-05-11T19:17:25;99938.56;;;15.30;85.25
40954;BME280;26686;50.130;8.710;2023-05-11T19:22:26;99943.22;;;15.20;87.38
40954;BME280;26686;50.130;8.710;2023-05-11T19:27:28;99938.69;;;15.20;87.77
40954;BME280;26686;50.130;8.710;2023-05-11T19:32:29;99939.56;;;15.21;88.86
40954;BME280;26686;50.130;8.710;2023-05-11T19:37:30;99942.91;;;15.23;87.90
40954;BME280;26686;50.130;8.710;2023-05-11T19:42:32;99945.41;;;15.25;88.33
40954;BME280;26686;50.130;8.710;2023-05-11T19:47:40;99949.41;;;15.20;89.64
40954;BME280;26686;50.130;8.710;2023-05-11T19:52:41;99949.75;;;15.17;89.34
40954;BME280;26686;50.130;8.710;2023-05-11T19:57:43;99955.97;;;15.18;89.18
40954;BME280;26686;50.130;8.710;2023-05-11T20:02:44;99958.81;;;15.16;89.01
40954;BME280;26686;50.130;8.710;2023-05-11T20:07:46;99951.75;;;15.15;89.39
40954;BME280;26686;50.130;8.710;2023-05-11T20:12:48;99961.81;;;15.13;89.47
40954;BME280;26686;50.130;8.710;2023-05-11T20:17:49;99959.44;;;15.10;89.95
40954;BME280;26686;50.130;8.710;2023-05-11T20:22:51;99954.91;;;15.11;89.73
40954;BME280;26686;50.130;8.710;2023-05-11T20:27:52;99945.72;;;15.13;89.90
40954;BME280;26686;50.130;8.710;2023-05-11T20:32:54;99949.56;;;15.11;89.55
40954;BME280;26686;50.130;8.710;2023-05-11T20:37:58;99953.94;;;15.12;89.70
40954;BME280;26686;50.130;8.710;2023-05-11T20:43:00;99942.66;;;15.08;89.59
40954;BME280;26686;50.130;8.710;2023-05-11T20:48:01;99945.19;;;15.10;89.30
40954;BME280;26686;50.130;8.710;2023-05-11T20:53:02;99938.00;;;15.10;89.37
40954;BME280;26686;50.130;8.710;2023-05-11T20:58:04;99934.78;;;15.07;89.74
40954;BME280;26686;50.130;8.710;2023-05-11T21:03:05;99936.97;;;15.03;90.16
40954;BME280;26686;50.130;8.710;2023-05-11T21:08:07;99925.22;;;15.04;90.64
40954;BME280;26686;50.130;8.710;2023-05-11T21:13:09;99932.25;;;14.97;90.25
40954;BME280;26686;50.130;8.710;2023-05-11T21:18:11;99930.72;;;14.94;90.87
40954;BME280;26686;50.130;8.710;2023-05-11T21:23:12;99920.16;;;14.93;89.63
40954;BME280;26686;50.130;8.710;2023-05-11T21:28:14;99916.44;;;14.85;91.10
40954;BME280;26686;50.130;8.710;2023-05-11T21:33:15;99915.28;;;14.88;90.59
40954;BME280;26686;50.130;8.710;2023-05-11T21:38:18;99911.56;;;14.89;91.40
40954;BME280;26686;50.130;8.710;2023-05-11T21:43:19;99905.72;;;14.85;90.84
40954;BME280;26686;50.130;8.710;2023-05-11T21:48:21;99902.19;;;14.85;91.00
40954;BME280;26686;50.130;8.710;2023-05-11T21:53:22;99902.69;;;14.80;91.17
40954;BME280;26686;50.130;8.710;2023-05-11T21:58:24;99911.38;;;14.82;91.77
40954;BME280;26686;50.130;8.710;2023-05-11T22:03:25;99904.50;;;14.80;91.95
40954;BME280;26686;50.130;8.710;2023-05-11T22:08:30;99904.50;;;14.80;92.53
40954;BME280;26686;50.130;8.710;2023-05-11T22:13:31;99906.69;;;14.84;91.88
40954;BME280;26686;50.130;8.710;2023-05-11T22:18:32;99907.50;;;14.77;92.39
40954;BME280;26686;50.130;8.710;2023-05-11T22:23:34;99893.44;;;14.75;92.25
40954;BME280;26686;50.130;8.710;2023-05-11T22:28:35;99899.47;;;14.77;92.63
40954;BME280;26686;50.130;8.710;2023-05-11T22:33:37;99902.13;;;14.77;92.54
40954;BME280;26686;50.130;8.710;2023-05-11T22:38:38;99907.34;;;14.78;91.30
40954;BME280;26686;50.130;8.710;2023-05-11T22:43:40;99905.13;;;14.74;92.69
40954;BME280;26686;50.130;8.710;2023-05-11T22:48:41;99904.47;;;14.72;92.90
40954;BME280;26686;50.130;8.710;2023-05-11T22:53:43;99918.69;;;14.72;92.65
40954;BME280;26686;50.130;8.710;2023-05-11T22:58:45;99902.63;;;14.72;93.77
40954;BME280;26686;50.130;8.710;2023-05-11T23:03:46;99916.72;;;14.74;93.53
40954;BME280;26686;50.130;8.710;2023-05-11T23:08:48;99908.44;;;14.67;93.28
40954;BME280;26686;50.130;8.710;2023-05-11T23:13:49;99913.31;;;14.64;92.65
40954;BME280;26686;50.130;8.710;2023-05-11T23:18:50;99911.63;;;14.63;93.28
40954;BME280;26686;50.130;8.710;2023-05-11T23:23:52;99903.25;;;14.66;94.55
40954;BME280;26686;50.130;8.710;2023-05-11T23:28:53;99893.84;;;14.62;93.48
40954;BME280;26686;50.130;8.710;2023-05-11T23:33:55;99897.91;;;14.66;93.69
40954;BME280;26686;50.130;8.710;2023-05-11T23:38:56;99899.59;;;14.67;92.89
40954;BME280;26686;50.130;8.710;2023-05-11T23:43:58;99898.22;;;14.63;93.21
40954;BME280;26686;50.130;8.710;2023-05-11T23:49:00;99906.25;;;14.63;94.25
40954;BME280;26686;50.130;8.710;2023-05-11T23:54:02;99903.88;;;14.60;93.44
40954;BME280;26686;50.130;8.710;2023-05-11T23:59:03;99896.97;;;14.57;93.85
